Time;durP1;ratioP1;P1;durP2;ratioP2;P2;SDS_P1;SDS_P2;PMS_P1;PMS_P2;Temp;Humidity;BMP_temperature;BMP_pressure;BME280_temperature;BME280_humidity;BME280_pressure;Samples;Min_cycle;Max_cycle;Signal;HPM_P1;HPM_P2
2023/09/26 12:15:24;;;;;;;;;9.00;8.40;;;;;-143.00;100.00;60422.56;5093178;27;75318;-67
2023/09/26 12:17:54;;;;;;;;;10.40;7.00;;;;;-143.00;100.00;60422.56;5109591;27;45509;-67
2023/09/26 12:20:21;;;;;;;;;7.60;7.60;;;;;-143.00;100.00;60422.56;5090031;27;45481;-67
2023/09/26 12:22:54;;;;;;;;;9.00;9.00;;;;;-143.00;100.00;60422.56;5094536;27;45276;-68
2023/09/26 12:25:24;;;;;;;;;5.00;4.40;;;;;-143.00;100.00;60422.56;5092698;27;46946;-68
2023/09/26 12:27:53;;;;;;;;;8.60;6.60;;;;;-143.00;100.00;60422.56;5094322;27;45457;-67
2023/09/26 12:30:19;;;;;;;;;7.40;7.40;;;;;-143.00;100.00;60422.56;5074585;27;45509;-67
2023/09/26 12:32:46;;;;;;;;;10.60;7.80;;;;;-143.00;100.00;60422.56;5103839;27;45372;-67
2023/09/26 12:35:11;;;;;;;;;7.40;7.40;;;;;-143.00;100.00;60422.56;5086167;27;45369;-67
2023/09/26 12:37:38;;;;;;;;;8.75;8.75;;;;;-143.00;100.00;60422.56;5073817;28;45369;-67
2023/09/26 12:40:08;;;;;;;;;8.00;5.20;;;;;-143.00;100.00;60422.56;5073453;28;45291;-66
2023/09/26 12:42:34;;;;;;;;;8.20;6.80;;;;;-143.00;100.00;60422.56;5073810;28;45410;-67
2023/09/26 12:44:59;;;;;;;;;9.50;7.75;;;;;-143.00;100.00;60422.56;5073171;27;46082;-67
2023/09/26 12:47:24;;;;;;;;;7.75;7.75;;;;;-143.00;100.00;60422.56;5074366;27;45376;-67
2023/09/26 12:49:50;;;;;;;;;8.00;7.50;;;;;-143.00;100.00;60422.56;5092869;27;45286;-68
2023/09/26 12:52:15;;;;;;;;;7.25;7.25;;;;;-143.00;100.00;60422.56;5087985;27;45401;-67
2023/09/26 12:54:41;;;;;;;;;7.75;7.75;;;;;-143.00;100.00;60422.56;5073017;28;46426;-67
2023/09/26 12:57:06;;;;;;;;;8.00;8.00;;;;;-143.00;100.00;60422.56;5073397;28;45276;-68
2023/09/26 12:59:34;;;;;;;;;6.25;6.25;;;;;-143.00;100.00;60422.56;5072989;28;45521;-68
2023/09/26 13:02:00;;;;;;;;;11.80;7.40;;;;;-143.00;100.00;60422.56;5073435;28;45456;-68
2023/09/26 13:04:25;;;;;;;;;7.75;7.50;;;;;-143.00;100.00;60422.56;5073114;28;45953;-67
2023/09/26 13:06:51;;;;;;;;;12.50;10.25;;;;;-143.00;100.00;60422.56;5073086;28;45370;-67
2023/09/26 13:09:16;;;;;;;;;12.25;8.50;;;;;-143.00;100.00;60422.56;5072768;28;45460;-68
2023/09/26 13:11:42;;;;;;;;;7.75;7.00;;;;;-143.00;100.00;60422.56;5073175;28;45462;-68
2023/09/26 13:14:07;;;;;;;;;3.25;3.00;;;;;-143.00;100.00;60422.56;5080060;27;45726;-68
2023/09/26 13:16:33;;;;;;;;;6.00;6.00;;;;;-143.00;100.00;60422.56;5093396;27;45376;-68
2023/09/26 13:18:59;;;;;;;;;9.80;8.20;;;;;-143.00;100.00;60422.56;5093716;27;45311;-68
2023/09/26 13:21:26;;;;;;;;;7.75;6.50;;;;;-143.00;100.00;60422.56;5093732;27;45557;-68
2023/09/26 13:23:52;;;;;;;;;9.00;8.00;;;;;-143.00;100.00;60422.56;5117186;27;46256;-67
2023/09/26 13:26:17;;;;;;;;;8.20;8.20;;;;;-143.00;100.00;60422.56;5098483;27;45456;-66
2023/09/26 13:28:44;;;;;;;;;7.75;7.75;;;;;-143.00;100.00;60422.56;5098457;27;45441;-66
2023/09/26 13:31:09;;;;;;;;;8.80;8.00;;;;;-143.00;100.00;60422.56;5117746;27;45358;-66
2023/09/26 13:33:34;;;;;;;;;7.00;7.00;;;;;-143.00;100.00;60422.56;5117396;27;46406;-68
2023/09/26 13:36:00;;;;;;;;;8.00;7.25;;;;;-143.00;100.00;60422.56;5117631;27;45420;-67
2023/09/26 13:38:25;;;;;;;;;8.50;8.00;;;;;-143.00;100.00;60422.56;5117541;27;45902;-67
2023/09/26 13:40:51;;;;;;;;;7.25;7.00;;;;;-143.00;100.00;60422.56;5117342;27;45541;-67
2023/09/26 13:43:16;;;;;;;;;8.50;6.25;;;;;-143.00;100.00;60422.56;5117043;27;46528;-67
2023/09/26 13:45:41;;;;;;;;;8.25;7.75;;;;;-143.00;100.00;60422.56;5117492;27;45356;-67
2023/09/26 13:48:07;;;;;;;;;8.00;8.00;;;;;-143.00;100.00;60422.56;5118088;27;45451;-67
2023/09/26 13:50:33;;;;;;;;;8.50;8.50;;;;;-143.00;100.00;60422.56;5098560;27;45412;-67
2023/09/26 13:52:58;;;;;;;;;7.50;7.50;;;;;-143.00;100.00;60422.56;5117196;27;46602;-67
2023/09/26 13:55:24;;;;;;;;;9.50;9.00;;;;;-143.00;100.00;60422.56;5117441;27;45452;-67
2023/09/26 13:57:51;;;;;;;;;10.00;7.75;;;;;-143.00;100.00;60422.56;5098665;27;45414;-66
2023/09/26 14:00:16;;;;;;;;;8.20;7.60;;;;;-143.00;100.00;60422.56;5116675;27;45469;-67
2023/09/26 14:02:42;;;;;;;;;9.50;8.00;;;;;-143.00;100.00;60422.56;5097505;27;47987;-66
2023/09/26 14:05:08;;;;;;;;;9.00;9.00;;;;;-143.00;100.00;60422.56;5116832;27;45329;-67
2023/09/26 14:07:33;;;;;;;;;10.75;7.25;;;;;-143.00;100.00;60422.56;5117098;27;45418;-67
2023/09/26 14:09:59;;;;;;;;;7.75;7.75;;;;;-143.00;100.00;60422.56;5098104;27;45314;-67
2023/09/26 14:12:25;;;;;;;;;9.00;9.00;;;;;-143.00;100.00;60422.56;5116493;27;45594;-68
2023/09/26 14:14:50;;;;;;;;;9.25;6.50;;;;;-143.00;100.00;60422.56;5116350;27;45459;-68
2023/09/26 14:17:16;;;;;;;;;7.25;6.00;;;;;-143.00;100.00;60422.56;5117147;27;45464;-67
2023/09/26 14:19:42;;;;;;;;;9.00;8.00;;;;;-143.00;100.00;60422.56;5116531;27;45487;-67
2023/09/26 14:22:07;;;;;;;;;8.00;8.00;;;;;-143.00;100.00;60422.56;5116446;27;45422;-67
2023/09/26 14:24:33;;;;;;;;;10.50;8.00;;;;;-143.00;100.00;60422.56;5098089;27;45492;-67
2023/09/26 14:26:59;;;;;;;;;12.50;10.75;;;;;-143.00;100.00;60422.56;5116854;27;45381;-67
2023/09/26 14:29:28;;;;;;;;;10.80;10.80;;;;;-143.00;100.00;60422.56;5116534;27;45390;-67
2023/09/26 14:31:54;;;;;;;;;5.00;5.00;;;;;-143.00;100.00;60422.56;5116486;27;46149;-67
2023/09/26 14:34:19;;;;;;;;;7.00;7.00;;;;;-143.00;100.00;60422.56;5096765;27;45594;-67
2023/09/26 14:36:45;;;;;;;;;8.25;8.25;;;;;-143.00;100.00;60422.56;5116692;27;45457;-66
2023/09/26 14:39:10;;;;;;;;;5.75;5.50;;;;;-143.00;100.00;60422.56;5116315;27;45504;-67
2023/09/26 14:41:35;;;;;;;;;8.25;5.25;;;;;-143.00;100.00;60422.56;5115725;27;45474;-67
2023/09/26 14:44:01;;;;;;;;;8.00;7.25;;;;;-143.00;100.00;60422.56;5115554;27;45465;-66
2023/09/26 14:46:26;;;;;;;;;5.50;5.00;;;;;-143.00;100.00;60422.56;5115689;27;45529;-67
2023/09/26 14:48:52;;;;;;;;;6.75;5.00;;;;;-143.00;100.00;60422.56;5115884;27;45392;-67
2023/09/26 14:51:17;;;;;;;;;10.25;8.00;;;;;-143.00;100.00;60422.56;5115648;27;45989;-67
2023/09/26 14:53:43;;;;;;;;;7.25;6.00;;;;;-143.00;100.00;60422.56;5115856;27;45621;-67
2023/09/26 14:56:08;;;;;;;;;3.50;3.50;;;;;-143.00;100.00;60422.56;5116361;27;45322;-67
2023/09/26 14:58:34;;;;;;;;;3.25;3.25;;;;;-143.00;100.00;60422.56;5115939;27;45447;-68
2023/09/26 15:01:00;;;;;;;;;4.80;4.40;;;;;-143.00;100.00;60422.56;5116166;27;46426;-68
2023/09/26 15:03:25;;;;;;;;;5.00;5.00;;;;;-143.00;100.00;60422.56;5116168;27;45404;-68
2023/09/26 15:05:51;;;;;;;;;4.25;2.00;;;;;-143.00;100.00;60422.56;5116355;27;45264;-68
2023/09/26 15:08:16;;;;;;;;;6.50;5.25;;;;;-143.00;100.00;60422.56;5116076;27;45458;-68
2023/09/26 15:10:41;;;;;;;;;3.50;3.50;;;;;-143.00;100.00;60422.56;5115272;27;46318;-68
2023/09/26 15:13:08;;;;;;;;;5.50;4.50;;;;;-143.00;100.00;60422.56;5113638;27;45419;-68
2023/09/26 15:15:34;;;;;;;;;3.20;3.20;;;;;-143.00;100.00;60422.56;5096442;27;45590;-68
2023/09/26 15:17:59;;;;;;;;;4.00;4.00;;;;;-143.00;100.00;60422.56;5096832;27;46418;-68
2023/09/26 15:20:25;;;;;;;;;3.00;3.00;;;;;-143.00;100.00;60422.56;5114071;27;45697;-67
2023/09/26 15:22:50;;;;;;;;;2.75;2.75;;;;;-143.00;100.00;60422.56;5102162;27;45380;-69
2023/09/26 15:25:16;;;;;;;;;2.50;2.50;;;;;-143.00;100.00;60422.56;5094909;27;45392;-68
2023/09/26 15:27:42;;;;;;;;;4.50;4.50;;;;;-143.00;100.00;60422.56;5094429;27;45523;-68
2023/09/26 15:30:08;;;;;;;;;9.75;7.75;;;;;-143.00;100.00;60422.56;5093990;27;45787;-67
2023/09/26 15:32:33;;;;;;;;;8.25;7.50;;;;;-143.00;100.00;60422.56;5094440;27;45429;-66
2023/09/26 15:34:59;;;;;;;;;11.50;10.00;;;;;-143.00;100.00;60422.56;5094686;27;45385;-67
2023/09/26 15:37:24;;;;;;;;;5.25;4.75;;;;;-143.00;100.00;60422.56;5094765;27;45633;-67
2023/09/26 15:39:49;;;;;;;;;6.00;6.00;;;;;-143.00;100.00;60422.56;5093912;27;45703;-68
2023/09/26 15:42:16;;;;;;;;;5.00;5.00;;;;;-143.00;100.00;60422.56;5094234;27;45384;-68
2023/09/26 15:44:41;;;;;;;;;7.00;7.00;;;;;-143.00;100.00;60422.56;5094119;27;45469;-68
2023/09/26 15:47:08;;;;;;;;;9.00;5.50;;;;;-143.00;100.00;60422.56;5092891;27;45341;-67
2023/09/26 15:51:59;;;;;;;;;6.00;6.00;;;;;-143.00;100.00;60422.56;5091930;27;45483;-67
2023/09/26 15:54:25;;;;;;;;;7.40;7.40;;;;;-143.00;100.00;60422.56;5094382;27;45481;-67
2023/09/26 15:56:50;;;;;;;;;10.25;6.00;;;;;-143.00;100.00;60422.56;5093854;27;45570;-67
2023/09/26 15:59:15;;;;;;;;;8.00;8.00;;;;;-143.00;100.00;60422.56;5093881;27;46118;-67
2023/09/26 16:01:41;;;;;;;;;10.50;10.00;;;;;-143.00;100.00;60422.56;5075560;27;45359;-67
2023/09/26 16:04:06;;;;;;;;;6.25;5.50;;;;;-143.00;100.00;60422.56;5094226;27;45334;-67
2023/09/26 16:06:32;;;;;;;;;11.00;7.00;;;;;-143.00;100.00;60422.56;5094474;27;45370;-67
2023/09/26 16:08:58;;;;;;;;;5.50;5.50;;;;;-143.00;100.00;60422.56;5093799;27;46065;-68
2023/09/26 16:11:24;;;;;;;;;5.60;5.40;;;;;-143.00;100.00;60422.56;5075838;27;45418;-67
2023/09/26 16:13:50;;;;;;;;;7.40;5.80;;;;;-143.00;100.00;60422.56;5093951;27;45540;-67
2023/09/26 16:16:15;;;;;;;;;11.50;9.00;;;;;-143.00;100.00;60422.56;5093345;27;45446;-67
2023/09/26 16:18:42;;;;;;;;;12.00;12.00;;;;;-143.00;100.00;60422.56;5093451;27;46362;-67
2023/09/26 16:21:07;;;;;;;;;8.40;8.40;;;;;-143.00;100.00;60422.56;5093902;27;45319;-67
2023/09/26 16:23:33;;;;;;;;;9.25;6.50;;;;;-143.00;100.00;60422.56;5093609;27;45397;-67
2023/09/26 16:25:58;;;;;;;;;12.25;11.50;;;;;-143.00;100.00;60422.56;5094037;27;45515;-67
2023/09/26 16:28:24;;;;;;;;;1.50;0.00;;;;;-143.00;100.00;60422.56;5093379;27;45423;-67
2023/09/26 16:30:49;;;;;;;;;10.75;8.50;;;;;-143.00;100.00;60422.56;5093745;27;45399;-67
2023/09/26 16:33:15;;;;;;;;;9.50;9.50;;;;;-143.00;100.00;60422.56;5075466;27;45484;-67
2023/09/26 16:35:40;;;;;;;;;10.75;10.00;;;;;-143.00;100.00;60422.56;5093511;27;45560;-67
2023/09/26 16:38:06;;;;;;;;;12.50;11.00;;;;;-143.00;100.00;60422.56;5093272;27;45657;-67
2023/09/26 16:40:31;;;;;;;;;13.75;9.25;;;;;-143.00;100.00;60422.56;5093836;27;45376;-67
2023/09/26 16:42:57;;;;;;;;;9.25;9.25;;;;;-143.00;100.00;60422.56;5074852;27;45426;-67
2023/09/26 16:45:22;;;;;;;;;11.25;9.75;;;;;-143.00;100.00;60422.56;5093939;27;45546;-67
2023/09/26 16:47:49;;;;;;;;;10.50;8.75;;;;;-143.00;100.00;60422.56;5094044;27;46078;-67
2023/09/26 16:50:17;;;;;;;;;10.60;9.00;;;;;-143.00;100.00;60422.56;5075073;27;45495;-68
2023/09/26 16:52:42;;;;;;;;;9.20;8.40;;;;;-143.00;100.00;60422.56;5093509;27;45377;-67
2023/09/26 16:55:08;;;;;;;;;10.50;9.75;;;;;-143.00;100.00;60422.56;5075146;27;45331;-68
2023/09/26 16:57:35;;;;;;;;;12.25;12.25;;;;;-143.00;100.00;60422.56;5092884;27;46751;-68
2023/09/26 17:00:01;;;;;;;;;8.40;8.00;;;;;-143.00;100.00;60422.56;5093495;27;45473;-68
2023/09/26 17:02:26;;;;;;;;;7.50;5.75;;;;;-143.00;100.00;60422.56;5093878;27;45331;-68
2023/09/26 17:04:53;;;;;;;;;9.75;9.50;;;;;-143.00;100.00;60422.56;5074960;27;45602;-68
2023/09/26 17:07:21;;;;;;;;;6.80;6.00;;;;;-143.00;100.00;60422.56;5075824;27;45418;-68
2023/09/26 17:09:47;;;;;;;;;10.60;9.80;;;;;-143.00;100.00;60422.56;5093696;27;45330;-68
2023/09/26 17:12:12;;;;;;;;;12.75;11.75;;;;;-143.00;100.00;60422.56;5094746;27;45278;-67
2023/09/26 17:14:38;;;;;;;;;8.00;7.75;;;;;-143.00;100.00;60422.56;5093608;27;45331;-67
2023/09/26 17:17:05;;;;;;;;;9.50;6.75;;;;;-143.00;100.00;60422.56;5093735;27;46009;-67
2023/09/26 17:19:30;;;;;;;;;6.20;5.20;;;;;-143.00;100.00;60422.56;5075145;27;45425;-67
2023/09/26 17:21:56;;;;;;;;;8.25;7.00;;;;;-143.00;100.00;60422.56;5093468;27;45416;-67
2023/09/26 17:24:21;;;;;;;;;10.00;10.00;;;;;-143.00;100.00;60422.56;5094470;27;45387;-67
2023/09/26 17:26:49;;;;;;;;;9.25;8.25;;;;;-143.00;100.00;60422.56;5094180;27;46022;-68
2023/09/26 17:29:14;;;;;;;;;11.60;9.00;;;;;-143.00;100.00;60422.56;5094112;27;45420;-68
2023/09/26 17:31:40;;;;;;;;;10.25;8.00;;;;;-143.00;100.00;60422.56;5094828;27;45368;-67
2023/09/26 17:34:05;;;;;;;;;7.50;7.50;;;;;-143.00;100.00;60422.56;5094494;27;45276;-68
2023/09/26 17:36:31;;;;;;;;;10.50;7.75;;;;;-143.00;100.00;60422.56;5094179;27;45597;-68
2023/09/26 17:38:56;;;;;;;;;7.50;7.00;;;;;-143.00;100.00;60422.56;5094537;27;45350;-68
2023/09/26 17:41:22;;;;;;;;;9.25;8.25;;;;;-143.00;100.00;60422.56;5094053;27;45559;-67
2023/09/26 17:43:48;;;;;;;;;9.25;9.25;;;;;-143.00;100.00;60422.56;5075074;27;45377;-68
2023/09/26 17:46:14;;;;;;;;;9.40;8.40;;;;;-143.00;100.00;60422.56;5094112;27;45582;-67
2023/09/26 17:48:39;;;;;;;;;10.25;9.50;;;;;-143.00;100.00;60422.56;5093792;27;45376;-67
2023/09/26 17:51:10;;;;;;;;;12.50;11.25;;;;;-143.00;100.00;60422.56;5093695;27;45733;-68
2023/09/26 17:53:36;;;;;;;;;9.40;8.80;;;;;-143.00;100.00;60422.56;5093890;27;45347;-67
2023/09/26 17:56:02;;;;;;;;;9.80;9.00;;;;;-143.00;100.00;60422.56;5094032;27;45419;-67
2023/09/26 17:58:27;;;;;;;;;13.00;10.00;;;;;-143.00;100.00;60422.56;5093894;27;45316;-67
2023/09/26 18:00:53;;;;;;;;;12.50;10.00;;;;;-143.00;100.00;60422.56;5093969;27;45360;-67
2023/09/26 18:03:20;;;;;;;;;12.00;11.50;;;;;-143.00;100.00;60422.56;5075652;27;45906;-67
2023/09/26 18:05:45;;;;;;;;;9.20;9.00;;;;;-143.00;100.00;60422.56;5075655;27;46208;-67
2023/09/26 18:08:10;;;;;;;;;10.25;10.00;;;;;-143.00;100.00;60422.56;5075647;27;45457;-68
2023/09/26 18:10:36;;;;;;;;;11.25;10.25;;;;;-143.00;100.00;60422.56;5096685;27;45834;-68
2023/09/26 18:13:01;;;;;;;;;11.75;11.00;;;;;-143.00;100.00;60422.56;5097092;27;45504;-68
2023/09/26 18:15:27;;;;;;;;;11.50;10.00;;;;;-143.00;100.00;60422.56;5097587;27;46474;-67
2023/09/26 18:17:53;;;;;;;;;10.50;10.00;;;;;-143.00;100.00;60422.56;5097717;27;45399;-68
2023/09/26 18:20:18;;;;;;;;;9.00;9.00;;;;;-143.00;100.00;60422.56;5097516;27;45395;-68
2023/09/26 18:22:43;;;;;;;;;10.00;8.00;;;;;-143.00;100.00;60422.56;5095803;27;45368;-67
2023/09/26 18:25:09;;;;;;;;;7.50;7.50;;;;;-143.00;100.00;60422.56;5097477;27;46342;-68
2023/09/26 18:27:34;;;;;;;;;8.25;8.25;;;;;-143.00;100.00;60422.56;5097087;27;45364;-68
2023/09/26 18:29:59;;;;;;;;;9.00;9.00;;;;;-143.00;100.00;60422.56;5097161;27;45446;-68
2023/09/26 18:32:25;;;;;;;;;11.50;10.00;;;;;-143.00;100.00;60422.56;5097254;27;45578;-68
2023/09/26 18:34:50;;;;;;;;;13.25;12.25;;;;;-143.00;100.00;60422.56;5078723;27;46496;-68
2023/09/26 18:37:16;;;;;;;;;14.00;10.50;;;;;-143.00;100.00;60422.56;5078325;27;45354;-68
2023/09/26 18:39:41;;;;;;;;;14.25;12.25;;;;;-143.00;100.00;60422.56;5097105;27;45686;-68
2023/09/26 18:42:06;;;;;;;;;14.00;12.50;;;;;-143.00;100.00;60422.56;5097239;27;45610;-68
2023/09/26 18:44:32;;;;;;;;;11.50;10.00;;;;;-143.00;100.00;60422.56;5096848;27;46373;-68
2023/09/26 18:46:57;;;;;;;;;13.25;11.50;;;;;-143.00;100.00;60422.56;5097318;27;45494;-68
2023/09/26 18:49:23;;;;;;;;;11.25;10.00;;;;;-143.00;100.00;60422.56;5097199;27;45486;-68
2023/09/26 18:51:49;;;;;;;;;12.75;12.50;;;;;-143.00;100.00;60422.56;5096883;27;45338;-68
2023/09/26 18:54:14;;;;;;;;;12.40;12.40;;;;;-143.00;100.00;60422.56;5097503;27;46703;-68
2023/09/26 18:56:40;;;;;;;;;14.75;12.50;;;;;-143.00;100.00;60422.56;5097165;27;45322;-68
2023/09/26 18:59:05;;;;;;;;;13.25;13.00;;;;;-143.00;100.00;60422.56;5097109;27;45629;-68
2023/09/26 19:01:31;;;;;;;;;11.75;11.50;;;;;-143.00;100.00;60422.56;5097289;27;45489;-68
2023/09/26 19:03:56;;;;;;;;;17.25;15.50;;;;;-143.00;100.00;60422.56;5096621;27;45525;-68
2023/09/26 19:06:21;;;;;;;;;13.25;13.25;;;;;-143.00;100.00;60422.56;5078299;27;45389;-68
2023/09/26 19:08:47;;;;;;;;;16.75;16.25;;;;;-143.00;100.00;60422.56;5096442;27;45398;-68
2023/09/26 19:11:13;;;;;;;;;15.75;13.75;;;;;-143.00;100.00;60422.56;5096570;27;45425;-68
2023/09/26 19:13:38;;;;;;;;;15.00;13.40;;;;;-143.00;100.00;60422.56;5096563;27;46464;-68
2023/09/26 19:16:04;;;;;;;;;13.25;11.25;;;;;-143.00;100.00;60422.56;5096966;27;45442;-68
2023/09/26 19:18:29;;;;;;;;;12.00;10.50;;;;;-143.00;100.00;60422.56;5097017;27;45396;-68
2023/09/26 19:20:55;;;;;;;;;10.50;10.50;;;;;-143.00;100.00;60422.56;5096222;27;45417;-68
2023/09/26 19:23:20;;;;;;;;;11.00;9.50;;;;;-143.00;100.00;60422.56;5096131;27;45519;-68
2023/09/26 19:25:46;;;;;;;;;12.25;11.50;;;;;-143.00;100.00;60422.56;5096754;27;45372;-68
2023/09/26 19:28:14;;;;;;;;;10.50;9.50;;;;;-143.00;100.00;60422.56;5096539;27;45422;-68
2023/09/26 19:30:43;;;;;;;;;13.00;11.50;;;;;-143.00;100.00;60422.56;5096214;27;45335;-68
2023/09/26 19:33:09;;;;;;;;;15.40;13.60;;;;;-143.00;100.00;60422.56;5077455;27;47017;-68
2023/09/26 19:35:34;;;;;;;;;14.50;13.75;;;;;-143.00;100.00;60422.56;5078144;27;45484;-68
2023/09/26 19:38:01;;;;;;;;;16.50;15.00;;;;;-143.00;100.00;60422.56;5097085;27;45356;-68
2023/09/26 19:40:26;;;;;;;;;15.50;15.00;;;;;-143.00;100.00;60422.56;5096379;27;45367;-68
2023/09/26 19:42:52;;;;;;;;;12.50;10.00;;;;;-143.00;100.00;60422.56;5095328;27;45705;-68
2023/09/26 19:45:17;;;;;;;;;12.00;11.00;;;;;-143.00;100.00;60422.56;5096075;27;45402;-68
2023/09/26 19:47:44;;;;;;;;;11.75;10.25;;;;;-143.00;100.00;60422.56;5096424;27;45355;-68
2023/09/26 19:50:10;;;;;;;;;11.50;10.75;;;;;-143.00;100.00;60422.56;5096071;27;45373;-68
2023/09/26 19:52:35;;;;;;;;;14.00;14.00;;;;;-143.00;100.00;60422.56;5096336;27;46255;-68
2023/09/26 19:55:01;;;;;;;;;12.00;10.50;;;;;-143.00;100.00;60422.56;5096137;27;45447;-68
2023/09/26 19:57:26;;;;;;;;;10.00;9.75;;;;;-143.00;100.00;60422.56;5077434;27;45562;-68
2023/09/26 19:59:52;;;;;;;;;10.25;9.25;;;;;-143.00;100.00;60422.56;5076979;27;45372;-68
2023/09/26 20:02:17;;;;;;;;;9.25;9.25;;;;;-143.00;100.00;60422.56;5095765;27;45476;-68
2023/09/26 20:04:42;;;;;;;;;9.25;9.00;;;;;-143.00;100.00;60422.56;5096130;27;45446;-68
2023/09/26 20:07:08;;;;;;;;;9.50;9.25;;;;;-143.00;100.00;60422.56;5096144;27;45349;-68
2023/09/26 20:09:33;;;;;;;;;12.75;11.00;;;;;-143.00;100.00;60422.56;5095545;27;45419;-68
2023/09/26 20:11:59;;;;;;;;;10.00;9.00;;;;;-143.00;100.00;60422.56;5095533;27;45435;-68
2023/09/26 20:14:24;;;;;;;;;10.75;10.00;;;;;-143.00;100.00;60422.56;5095217;27;45367;-68
2023/09/26 20:16:50;;;;;;;;;12.50;11.50;;;;;-143.00;100.00;60422.56;5095726;27;45761;-68
2023/09/26 20:19:15;;;;;;;;;11.50;9.50;;;;;-143.00;100.00;60422.56;5095733;27;45473;-68
2023/09/26 20:21:40;;;;;;;;;11.00;9.75;;;;;-143.00;100.00;60422.56;5076490;27;47951;-68
2023/09/26 20:24:06;;;;;;;;;9.00;7.75;;;;;-143.00;100.00;60422.56;5095652;27;45364;-68
2023/09/26 20:26:32;;;;;;;;;17.00;11.00;;;;;-143.00;100.00;60422.56;5095781;27;45342;-68
2023/09/26 20:28:59;;;;;;;;;11.25;10.50;;;;;-143.00;100.00;60422.56;5076810;27;45507;-68
2023/09/26 20:31:25;;;;;;;;;10.20;7.00;;;;;-143.00;100.00;60422.56;5094907;27;45419;-68
2023/09/26 20:33:50;;;;;;;;;10.25;8.75;;;;;-143.00;100.00;60422.56;5094826;27;45519;-69
2023/09/26 20:36:15;;;;;;;;;13.50;11.50;;;;;-143.00;100.00;60422.56;5095235;27;45944;-68
2023/09/26 20:38:41;;;;;;;;;9.75;9.75;;;;;-143.00;100.00;60422.56;5077209;27;45564;-68
2023/09/26 20:41:08;;;;;;;;;11.25;11.25;;;;;-143.00;100.00;60422.56;5095203;27;45458;-68
2023/09/26 20:43:35;;;;;;;;;15.00;13.60;;;;;-143.00;100.00;60422.56;5094899;27;45441;-68
2023/09/26 20:46:01;;;;;;;;;13.00;13.00;;;;;-143.00;100.00;60422.56;5095325;27;45436;-68
2023/09/26 20:48:27;;;;;;;;;14.50;12.50;;;;;-143.00;100.00;60422.56;5095141;27;45532;-68
2023/09/26 20:50:53;;;;;;;;;11.00;11.00;;;;;-143.00;100.00;60422.56;5094985;27;45459;-68
2023/09/26 20:53:18;;;;;;;;;10.25;10.25;;;;;-143.00;100.00;60422.56;5095289;27;45413;-68
2023/09/26 20:55:44;;;;;;;;;14.25;10.25;;;;;-143.00;100.00;60422.56;5095607;27;45455;-68
2023/09/26 20:58:12;;;;;;;;;13.00;12.25;;;;;-143.00;100.00;60422.56;5094713;27;45369;-68
2023/09/26 21:00:37;;;;;;;;;16.25;12.75;;;;;-143.00;100.00;60422.56;5094889;27;46361;-68
2023/09/26 21:03:03;;;;;;;;;13.25;11.25;;;;;-143.00;100.00;60422.56;5095185;27;45435;-68
2023/09/26 21:05:28;;;;;;;;;12.00;10.00;;;;;-143.00;100.00;60422.56;5095540;27;45390;-68
2023/09/26 21:07:54;;;;;;;;;11.25;10.00;;;;;-143.00;100.00;60422.56;5076836;27;45404;-68
2023/09/26 21:10:19;;;;;;;;;9.00;9.00;;;;;-143.00;100.00;60422.56;5076473;27;46753;-69
2023/09/26 21:12:44;;;;;;;;;11.75;9.00;;;;;-143.00;100.00;60422.56;5076241;27;45546;-68
2023/09/26 21:15:10;;;;;;;;;11.50;10.00;;;;;-143.00;100.00;60422.56;5095566;27;45414;-69
2023/09/26 21:17:36;;;;;;;;;9.75;8.00;;;;;-143.00;100.00;60422.56;5095084;27;45411;-68
2023/09/26 21:20:05;;;;;;;;;10.50;8.25;;;;;-143.00;100.00;60422.56;5094406;27;45618;-68
2023/09/26 21:22:30;;;;;;;;;12.80;10.60;;;;;-143.00;100.00;60422.56;5094796;27;45392;-69
2023/09/26 21:24:56;;;;;;;;;11.50;8.50;;;;;-143.00;100.00;60422.56;5095496;27;45593;-68
2023/09/26 21:27:21;;;;;;;;;10.00;8.75;;;;;-143.00;100.00;60422.56;5076616;27;45401;-68
2023/09/26 21:29:46;;;;;;;;;9.50;8.50;;;;;-143.00;100.00;60422.56;5094444;27;46359;-68
2023/09/26 21:32:12;;;;;;;;;9.75;9.75;;;;;-143.00;100.00;60422.56;5094595;27;45454;-68
2023/09/26 21:34:37;;;;;;;;;11.25;10.00;;;;;-143.00;100.00;60422.56;5076580;27;45343;-68
2023/09/26 21:37:03;;;;;;;;;11.75;10.00;;;;;-143.00;100.00;60422.56;5076162;27;45799;-68
2023/09/26 21:39:28;;;;;;;;;11.75;10.00;;;;;-143.00;100.00;60422.56;5094806;27;46370;-68
2023/09/26 21:41:54;;;;;;;;;13.75;11.00;;;;;-143.00;100.00;60422.56;5094674;27;45396;-68
2023/09/26 21:44:19;;;;;;;;;11.25;7.00;;;;;-143.00;100.00;60422.56;5097435;27;45472;-68
2023/09/26 21:46:45;;;;;;;;;11.25;9.00;;;;;-143.00;100.00;60422.56;5098635;27;45499;-68
2023/09/26 21:49:10;;;;;;;;;11.25;9.50;;;;;-143.00;100.00;60422.56;5098598;27;46370;-69
2023/09/26 21:51:36;;;;;;;;;10.50;8.50;;;;;-143.00;100.00;60422.56;5079678;27;45505;-68
2023/09/26 21:54:01;;;;;;;;;11.50;9.25;;;;;-143.00;100.00;60422.56;5080346;27;45432;-68
2023/09/26 21:56:26;;;;;;;;;12.00;9.25;;;;;-143.00;100.00;60422.56;5080320;27;45449;-68
2023/09/26 21:58:52;;;;;;;;;11.25;9.00;;;;;-143.00;100.00;60422.56;5097977;27;45467;-68
2023/09/26 22:01:19;;;;;;;;;7.75;7.00;;;;;-143.00;100.00;60422.56;5097892;27;45388;-68
2023/09/26 22:03:45;;;;;;;;;11.20;9.00;;;;;-143.00;100.00;60422.56;5098170;27;45265;-68
2023/09/26 22:06:12;;;;;;;;;10.50;10.25;;;;;-143.00;100.00;60422.56;5098126;27;45566;-68
2023/09/26 22:08:37;;;;;;;;;12.50;9.75;;;;;-143.00;100.00;60422.56;5097957;27;45489;-68
2023/09/26 22:11:03;;;;;;;;;8.75;8.75;;;;;-143.00;100.00;60422.56;5097839;27;45342;-68
2023/09/26 22:13:28;;;;;;;;;11.25;9.50;;;;;-143.00;100.00;60422.56;5097652;27;45427;-68
2023/09/26 22:15:54;;;;;;;;;10.75;9.00;;;;;-143.00;100.00;60422.56;5098294;27;45376;-68
2023/09/26 22:18:20;;;;;;;;;11.60;10.40;;;;;-143.00;100.00;60422.56;5097633;27;45704;-68
2023/09/26 22:20:46;;;;;;;;;12.80;8.80;;;;;-143.00;100.00;60422.56;5097983;27;45409;-69
2023/09/26 22:23:12;;;;;;;;;9.00;9.00;;;;;-143.00;100.00;60422.56;5097907;27;45441;-68
2023/09/26 22:25:37;;;;;;;;;10.50;10.25;;;;;-143.00;100.00;60422.56;5098241;27;45288;-68
2023/09/26 22:28:03;;;;;;;;;7.75;7.50;;;;;-143.00;100.00;60422.56;5097543;27;46118;-68
2023/09/26 22:30:31;;;;;;;;;11.00;9.50;;;;;-143.00;100.00;60422.56;5097822;27;45359;-69
2023/09/26 22:32:56;;;;;;;;;14.20;9.80;;;;;-143.00;100.00;60422.56;5097979;27;45421;-69
2023/09/26 22:35:22;;;;;;;;;8.50;8.25;;;;;-143.00;100.00;60422.56;5079229;27;45328;-69
2023/09/26 22:37:49;;;;;;;;;7.50;7.50;;;;;-143.00;100.00;60422.56;5097574;27;45464;-69
2023/09/26 22:40:15;;;;;;;;;8.00;7.00;;;;;-143.00;100.00;60422.56;5097992;27;45395;-69
2023/09/26 22:42:41;;;;;;;;;14.25;10.50;;;;;-143.00;100.00;60422.56;5097719;27;45559;-68
2023/09/26 22:45:07;;;;;;;;;10.50;8.50;;;;;-143.00;100.00;60422.56;5097553;27;45490;-68
2023/09/26 22:47:32;;;;;;;;;8.25;8.25;;;;;-143.00;100.00;60422.56;5097588;27;45355;-69
2023/09/26 22:49:59;;;;;;;;;10.75;8.50;;;;;-143.00;100.00;60422.56;5078226;27;45471;-68
2023/09/26 22:52:26;;;;;;;;;11.40;9.60;;;;;-143.00;100.00;60422.56;5097343;27;45344;-68
2023/09/26 22:54:51;;;;;;;;;7.20;6.80;;;;;-143.00;100.00;60422.56;5078508;27;45395;-68
2023/09/26 22:57:16;;;;;;;;;12.00;10.75;;;;;-143.00;100.00;60422.56;5096725;27;46409;-68
2023/09/26 22:59:42;;;;;;;;;7.75;4.50;;;;;-143.00;100.00;60422.56;5097003;27;45380;-69
2023/09/26 23:02:07;;;;;;;;;8.50;8.50;;;;;-143.00;100.00;60422.56;5097221;27;45382;-69
2023/09/26 23:04:34;;;;;;;;;9.25;9.25;;;;;-143.00;100.00;60422.56;5097177;27;45466;-69
2023/09/26 23:06:59;;;;;;;;;9.20;8.00;;;;;-143.00;100.00;60422.56;5097376;27;45432;-68
2023/09/26 23:09:25;;;;;;;;;8.50;8.25;;;;;-143.00;100.00;60422.56;5097149;27;45428;-68
2023/09/26 23:11:52;;;;;;;;;8.50;8.25;;;;;-143.00;100.00;60422.56;5097303;27;45308;-68